Time;durP1;ratioP1;P1;durP2;ratioP2;P2;SDS_P1;SDS_P2;PMS_P1;PMS_P2;Temp;Humidity;BMP_temperature;BMP_pressure;BME280_temperature;BME280_humidity;BME280_pressure;Samples;Min_cycle;Max_cycle;Signal;HPM_P1;HPM_P2
2022/05/28 13:12:10;;;;;;;4.35;1.52;;;;;;;20.68;31.39;100262.47;5641923;31;187935;-58
2022/05/28 13:15:35;;;;;;;5.45;1.52;;;;;;;20.68;31.39;100262.47;5623667;31;33346;-58
2022/05/28 13:18:56;;;;;;;3.92;1.30;;;;;;;20.25;33.34;100264.06;5623552;31;34343;-58
2022/05/28 13:22:03;;;;;;;5.28;1.50;;;;;;;20.22;31.83;100258.53;5623783;31;33730;-58
2022/05/28 13:25:46;;;;;;;4.90;1.70;;;;;;;20.34;31.88;100255.75;5623462;31;34162;-58
2022/05/28 13:29:16;;;;;;;4.07;1.17;;;;;;;20.35;31.63;100262.78;5623458;31;33529;-58
2022/05/28 13:32:30;;;;;;;2.70;1.30;;;;;;;20.37;31.10;100264.00;5623246;31;34282;-58
2022/05/28 13:35:56;;;;;;;5.80;1.48;;;;;;;20.37;30.60;100258.56;5621948;31;33628;-58
2022/05/28 13:39:00;;;;;;;4.10;1.33;;;;;;;20.43;31.49;100256.38;5603695;31;33714;-58
2022/05/28 13:42:07;;;;;;;5.82;1.73;;;;;;;20.51;30.24;100255.44;5603656;31;33753;-58
2022/05/28 13:45:10;;;;;;;3.53;1.55;;;;;;;20.54;30.74;100265.62;5603520;31;34898;-58
2022/05/28 13:48:20;;;;;;;5.80;1.23;;;;;;;20.50;30.42;100262.00;5603603;31;33661;-58
2022/05/28 13:51:24;;;;;;;4.18;1.30;;;;;;;20.62;32.20;100250.25;5603347;31;33791;-58
2022/05/28 13:54:27;;;;;;;5.90;1.35;;;;;;;20.65;31.13;100253.06;5603339;31;34843;-58
2022/05/28 13:57:46;;;;;;;3.83;1.33;;;;;;;20.65;30.09;100260.47;5603426;31;33802;-58
2022/05/28 14:00:57;;;;;;;4.55;1.42;;;;;;;20.78;31.98;100256.50;5603293;31;33639;-58
2022/05/28 14:04:16;;;;;;;4.80;1.35;;;;;;;20.85;31.74;100251.22;5603598;31;33900;-58
2022/05/28 14:07:25;;;;;;;1.95;1.10;;;;;;;21.01;28.85;100253.16;5603436;31;33707;-58
2022/05/28 14:10:30;;;;;;;1.58;0.98;;;;;;;20.95;28.96;100235.50;5603028;31;34291;-58
2022/05/28 14:13:36;;;;;;;5.05;1.62;;;;;;;20.84;28.43;100235.25;5603296;31;33663;-58
2022/05/28 14:16:44;;;;;;;5.35;1.02;;;;;;;20.85;28.08;100248.50;5603118;31;34422;-58
2022/05/28 14:19:57;;;;;;;3.85;1.17;;;;;;;20.91;29.76;100234.63;5603338;31;33640;-58
2022/05/28 14:23:00;;;;;;;4.35;1.25;;;;;;;20.79;29.87;100247.19;5590846;31;34326;-58
2022/05/28 14:26:03;;;;;;;5.00;1.10;;;;;;;20.69;28.77;100225.91;5589991;31;33604;-58
2022/05/28 14:29:12;;;;;;;3.72;1.35;;;;;;;20.58;29.03;100236.56;5589844;31;33692;-58
2022/05/28 14:32:33;;;;;;;4.82;1.20;;;;;;;20.57;29.74;100237.72;5589828;31;33043;-58
2022/05/28 14:35:44;;;;;;;2.87;1.50;;;;;;;20.61;28.66;100238.59;5589789;31;34305;-58
2022/05/28 14:38:50;;;;;;;3.83;1.62;;;;;;;20.59;29.63;100240.06;5589922;31;33685;-58
2022/05/28 14:42:06;;;;;;;8.05;1.67;;;;;;;20.62;29.27;100251.06;5589831;31;33767;-58
2022/05/28 14:45:16;;;;;;;3.37;1.20;;;;;;;20.76;37.45;100242.47;5589797;31;33607;-58
2022/05/28 14:48:24;;;;;;;4.78;1.40;;;;;;;20.80;31.09;100240.59;5593641;31;33571;-58
2022/05/28 14:51:36;;;;;;;3.12;1.00;;;;;;;20.96;30.73;100234.34;5609194;31;33764;-58
2022/05/28 14:54:50;;;;;;;6.07;1.10;;;;;;;20.88;28.71;100236.13;5609069;31;33753;-58
2022/05/28 14:58:05;;;;;;;3.60;1.00;;;;;;;20.77;29.07;100226.91;5609302;31;33303;-58
2022/05/28 15:01:09;;;;;;;4.43;1.20;;;;;;;20.84;27.53;100222.41;5609258;31;33149;-58
2022/05/28 15:04:16;;;;;;;5.37;1.02;;;;;;;20.97;28.66;100220.37;5609148;31;33798;-58
2022/05/28 15:07:25;;;;;;;2.53;1.02;;;;;;;21.02;27.47;100225.53;5609344;31;33598;-58
2022/05/28 15:10:47;;;;;;;4.15;1.10;;;;;;;21.06;27.04;100220.97;5588832;31;33719;-58
2022/05/28 15:13:51;;;;;;;3.20;1.20;;;;;;;20.99;27.05;100220.00;5589202;31;33769;-58
2022/05/28 15:16:54;;;;;;;1.77;0.95;;;;;;;20.96;27.04;100212.53;5589152;31;33610;-58
2022/05/28 15:19:56;;;;;;;5.50;1.00;;;;;;;20.93;26.30;100221.44;5589340;31;33744;-58
2022/05/28 15:23:09;;;;;;;2.60;0.95;;;;;;;21.01;25.71;100223.19;5589409;31;33679;-58
2022/05/28 15:26:19;;;;;;;4.12;1.12;;;;;;;21.09;26.06;100217.56;5589475;31;34157;-58
2022/05/28 15:29:21;;;;;;;4.28;0.90;;;;;;;21.03;26.65;100232.59;5589406;31;33787;-58
2022/05/28 15:32:27;;;;;;;1.67;0.98;;;;;;;20.97;24.62;100234.00;5588577;31;34305;-58
